createdAt,value
2023-01-29T00:02:05.541Z,22.50
2023-01-29T00:04:34.225Z,24.23
2023-01-29T00:07:03.912Z,21.65
2023-01-29T00:09:32.377Z,19.80
2023-01-29T00:12:00.443Z,20.80
2023-01-29T00:14:28.686Z,22.23
2023-01-29T00:16:57.169Z,23.92
2023-01-29T00:19:25.329Z,20.92
2023-01-29T00:21:56.241Z,23.30
2023-01-29T00:24:25.773Z,23.45
2023-01-29T00:26:53.999Z,22.38
2023-01-29T00:29:22.075Z,21.40
2023-01-29T00:31:50.518Z,21.98
2023-01-29T00:34:19.061Z,22.25
2023-01-29T00:36:47.101Z,20.30
2023-01-29T00:39:15.092Z,21.10
2023-01-29T00:42:02.159Z,22.63
2023-01-29T00:44:47.445Z,24.70
2023-01-29T00:47:33.540Z,21.60
2023-01-29T00:50:02.456Z,20.77
2023-01-29T00:52:30.816Z,20.88
2023-01-29T00:55:01.204Z,21.85
2023-01-29T00:57:32.462Z,23.48
2023-01-29T01:00:00.613Z,23.98
2023-01-29T01:02:46.766Z,22.25
2023-01-29T01:05:19.007Z,25.65
2023-01-29T01:07:48.738Z,20.67
2023-01-29T01:10:24.412Z,23.25
2023-01-29T01:12:56.829Z,24.98
2023-01-29T01:15:26.929Z,26.13
2023-01-29T01:17:55.795Z,21.83
2023-01-29T01:20:24.306Z,26.55
2023-01-29T01:22:52.827Z,25.30
2023-01-29T01:25:21.372Z,24.08
2023-01-29T01:27:53.436Z,21.42
2023-01-29T01:30:23.609Z,23.45
2023-01-29T01:32:52.006Z,25.38
2023-01-29T01:35:20.229Z,26.95
2023-01-29T01:37:48.382Z,24.83
2023-01-29T01:40:20.266Z,24.70
2023-01-29T01:42:50.496Z,27.55
2023-01-29T01:45:27.571Z,27.23
2023-01-29T01:48:00.754Z,24.77
2023-01-29T01:50:34.265Z,28.27
2023-01-29T01:53:06.958Z,25.05
2023-01-29T01:55:38.403Z,27.40
2023-01-29T01:58:11.485Z,25.35
2023-01-29T02:00:41.607Z,23.85
2023-01-29T02:03:30.499Z,27.17
2023-01-29T02:06:18.576Z,25.50
2023-01-29T02:09:11.488Z,24.95
2023-01-29T02:14:08.236Z,25.45
2023-01-29T02:16:38.295Z,26.90
2023-01-29T02:19:15.777Z,27.45
2023-01-29T02:22:17.158Z,27.92
2023-01-29T02:25:21.573Z,24.23
2023-01-29T02:28:17.158Z,26.45
2023-01-29T02:30:54.078Z,25.13
2023-01-29T02:33:33.123Z,26.13
2023-01-29T02:36:14.021Z,24.13
2023-01-29T02:38:49.074Z,26.13
2023-01-29T02:41:24.823Z,25.08
2023-01-29T02:43:59.173Z,28.08
2023-01-29T02:46:36.315Z,25.40
2023-01-29T02:49:11.700Z,26.90
2023-01-29T02:51:45.955Z,24.55
2023-01-29T02:54:21.499Z,27.92
2023-01-29T02:56:55.146Z,28.83
2023-01-29T02:59:30.785Z,26.55
2023-01-29T03:02:04.441Z,26.67
2023-01-29T03:04:38.616Z,28.42
2023-01-29T03:07:22.691Z,26.98
2023-01-29T03:09:54.375Z,26.13
2023-01-29T03:12:34.054Z,28.27
2023-01-29T03:15:16.701Z,25.35
2023-01-29T03:17:50.773Z,26.92
2023-01-29T03:20:25.441Z,26.75
2023-01-29T03:22:57.920Z,27.08
2023-01-29T03:28:33.117Z,25.58
2023-01-29T03:31:22.946Z,26.10
2023-01-29T03:33:55.847Z,27.23
2023-01-29T03:36:39.889Z,24.88
2023-01-29T03:39:09.825Z,24.50
2023-01-29T03:41:41.499Z,27.95
2023-01-29T03:44:15.841Z,25.67
2023-01-29T03:46:54.759Z,27.52
2023-01-29T03:49:33.494Z,28.77
2023-01-29T03:52:05.881Z,28.25
2023-01-29T03:54:45.589Z,28.05
2023-01-29T03:57:20.928Z,26.63
2023-01-29T03:59:55.277Z,27.88
2023-01-29T04:02:30.055Z,30.55
2023-01-29T04:05:03.290Z,26.60
2023-01-29T04:07:33.581Z,26.77
2023-01-29T04:10:06.744Z,29.63
2023-01-29T04:12:39.832Z,28.60
2023-01-29T04:15:12.307Z,28.50
2023-01-29T04:17:44.745Z,29.08
2023-01-29T04:20:13.806Z,26.73
2023-01-29T04:22:46.117Z,26.38
2023-01-29T04:25:18.654Z,26.63
2023-01-29T04:27:54.470Z,28.55
2023-01-29T04:30:31.506Z,25.75
2023-01-29T04:33:09.231Z,28.73
2023-01-29T04:35:53.376Z,26.73
2023-01-29T04:38:36.019Z,29.15
2023-01-29T04:41:12.623Z,29.63
2023-01-29T04:43:48.803Z,29.05
2023-01-29T04:46:21.065Z,29.02
2023-01-29T04:49:06.187Z,29.63
2023-01-29T04:51:44.696Z,31.92
2023-01-29T04:54:21.509Z,29.40
2023-01-29T04:56:56.579Z,28.35
2023-01-29T04:59:29.054Z,28.67
2023-01-29T05:04:28.803Z,29.27
2023-01-29T05:06:57.294Z,26.70
2023-01-29T05:09:27.098Z,27.17
2023-01-29T05:11:56.888Z,31.33
2023-01-29T05:14:30.593Z,28.15
2023-01-29T05:17:03.506Z,27.52
2023-01-29T05:19:33.010Z,24.67
2023-01-29T05:22:01.589Z,27.92
2023-01-29T05:24:29.728Z,29.75
2023-01-29T05:27:15.164Z,28.83
2023-01-29T05:29:47.211Z,25.02
2023-01-29T05:32:16.116Z,30.70
2023-01-29T05:34:45.571Z,28.63
2023-01-29T05:37:13.690Z,27.08
2023-01-29T05:39:41.731Z,28.38
2023-01-29T05:42:09.769Z,26.85
2023-01-29T05:44:37.787Z,27.95
2023-01-29T05:47:05.997Z,31.00
2023-01-29T05:49:34.126Z,28.02
2023-01-29T05:52:03.908Z,32.60
2023-01-29T05:54:31.945Z,29.30
2023-01-29T05:57:02.407Z,31.50
2023-01-29T05:59:31.285Z,28.30
2023-01-29T06:01:59.581Z,30.75
2023-01-29T06:04:27.691Z,32.80
2023-01-29T06:06:55.722Z,29.30
2023-01-29T06:09:25.276Z,26.88
2023-01-29T06:11:53.326Z,29.88
2023-01-29T06:14:21.536Z,32.97
2023-01-29T06:16:49.623Z,31.05
2023-01-29T06:19:18.419Z,27.80
2023-01-29T06:21:46.467Z,30.70
2023-01-29T06:24:14.841Z,27.05
2023-01-29T06:26:46.504Z,29.10
2023-01-29T06:29:14.560Z,32.85
2023-01-29T06:31:42.754Z,32.58
2023-01-29T06:34:12.075Z,29.90
2023-01-29T06:36:41.679Z,32.10
2023-01-29T06:39:09.939Z,31.88
2023-01-29T06:41:37.995Z,30.58
2023-01-29T06:44:07.489Z,30.08
2023-01-29T06:46:35.569Z,33.35
2023-01-29T06:49:03.676Z,31.95
2023-01-29T06:51:31.794Z,29.55
2023-01-29T06:53:59.830Z,33.38
2023-01-29T06:56:28.084Z,29.35
2023-01-29T06:58:56.217Z,28.67
2023-01-29T07:01:35.840Z,28.30
2023-01-29T07:04:04.991Z,29.10
2023-01-29T07:06:33.090Z,30.55
2023-01-29T07:09:01.451Z,28.73
2023-01-29T07:11:29.697Z,32.17
2023-01-29T07:13:57.954Z,27.15
2023-01-29T07:16:27.639Z,35.63
2023-01-29T07:18:55.773Z,32.58
2023-01-29T07:21:24.210Z,28.00
2023-01-29T07:23:52.560Z,28.83
2023-01-29T07:26:20.773Z,29.25
2023-01-29T07:28:48.875Z,27.95
2023-01-29T07:31:17.032Z,30.65
2023-01-29T07:33:47.014Z,30.60
2023-01-29T07:36:15.476Z,29.83
2023-01-29T07:38:43.465Z,31.77
2023-01-29T07:41:13.115Z,32.25
2023-01-29T07:43:41.165Z,33.15
2023-01-29T07:46:09.414Z,32.67
2023-01-29T07:48:37.565Z,28.88
2023-01-29T07:51:07.434Z,29.65
2023-01-29T07:53:35.906Z,29.83
2023-01-29T07:56:04.002Z,32.03
2023-01-29T07:58:32.146Z,31.05
2023-01-29T08:01:00.278Z,31.42
2023-01-29T08:03:28.548Z,32.13
2023-01-29T08:05:58.731Z,31.02
2023-01-29T08:08:28.186Z,30.33
2023-01-29T08:10:56.296Z,30.15
2023-01-29T08:13:24.338Z,29.42
2023-01-29T08:15:52.310Z,32.63
2023-01-29T08:18:20.735Z,32.00
2023-01-29T08:20:48.769Z,32.15
2023-01-29T08:23:17.575Z,30.92
2023-01-29T08:25:47.027Z,34.33
2023-01-29T08:28:15.110Z,32.63
2023-01-29T08:30:44.170Z,30.77
2023-01-29T08:33:12.633Z,29.60
2023-01-29T08:35:41.302Z,30.83
2023-01-29T08:38:10.704Z,32.75
2023-01-29T08:40:38.904Z,30.27
2023-01-29T08:43:09.736Z,29.52
2023-01-29T08:45:40.344Z,29.48
2023-01-29T08:48:09.243Z,27.40
2023-01-29T08:50:38.206Z,28.95
2023-01-29T08:53:08.270Z,30.08
2023-01-29T08:55:37.525Z,26.85
2023-01-29T08:58:06.410Z,30.15
2023-01-29T09:00:36.451Z,29.05
2023-01-29T09:03:05.145Z,31.08
2023-01-29T09:05:33.283Z,33.08
2023-01-29T09:08:01.371Z,29.27
2023-01-29T09:10:29.474Z,31.98
2023-01-29T09:12:57.595Z,28.52
2023-01-29T09:15:26.134Z,30.40
2023-01-29T09:17:55.820Z,29.48
2023-01-29T09:20:23.990Z,32.88
2023-01-29T09:22:53.772Z,27.92
2023-01-29T09:25:21.971Z,29.33
2023-01-29T09:27:49.968Z,29.90
2023-01-29T09:30:19.165Z,27.92
2023-01-29T09:32:53.748Z,28.67
2023-01-29T09:35:24.724Z,28.38
2023-01-29T09:37:53.247Z,28.98
2023-01-29T09:40:27.689Z,29.35
2023-01-29T09:43:01.896Z,28.27
2023-01-29T09:45:31.390Z,26.98
2023-01-29T09:48:02.232Z,28.75
2023-01-29T09:50:36.093Z,28.48
2023-01-29T09:53:11.206Z,26.90
2023-01-29T09:55:43.818Z,26.95
2023-01-29T09:58:20.155Z,25.27
2023-01-29T10:00:59.287Z,27.95
2023-01-29T10:03:51.079Z,29.65
2023-01-29T10:06:33.570Z,28.35
2023-01-29T10:09:46.182Z,31.58
2023-01-29T10:12:27.987Z,26.33
2023-01-29T10:15:04.605Z,28.00
2023-01-29T10:17:49.552Z,26.98
2023-01-29T10:20:39.792Z,29.13
2023-01-29T10:23:25.192Z,28.13
2023-01-29T10:25:54.590Z,28.52
2023-01-29T10:28:28.851Z,27.05
2023-01-29T10:31:01.816Z,26.10
2023-01-29T10:33:49.635Z,24.48
2023-01-29T10:36:29.919Z,25.90
2023-01-29T10:38:59.466Z,27.02
2023-01-29T10:41:44.116Z,28.95
2023-01-29T10:44:36.367Z,23.23
2023-01-29T10:47:21.036Z,24.30
2023-01-29T10:50:21.962Z,23.08
2023-01-29T10:53:05.004Z,23.80
2023-01-29T10:55:52.516Z,24.58
2023-01-29T10:58:28.294Z,24.67
2023-01-29T11:00:56.538Z,22.63
2023-01-29T11:03:28.355Z,24.52
2023-01-29T11:06:04.068Z,21.85
2023-01-29T11:08:38.623Z,22.92
2023-01-29T11:11:13.450Z,22.75
2023-01-29T11:13:45.952Z,23.95
2023-01-29T11:16:14.597Z,25.95
2023-01-29T11:18:54.704Z,25.75
2023-01-29T11:21:24.533Z,23.88
2023-01-29T11:24:06.410Z,24.40
2023-01-29T11:26:40.176Z,21.87
2023-01-29T11:29:32.876Z,26.15
2023-01-29T11:32:03.593Z,26.77
2023-01-29T11:34:32.285Z,22.45
2023-01-29T11:37:02.640Z,24.60
2023-01-29T11:39:32.311Z,20.23
2023-01-29T11:42:03.730Z,26.88
2023-01-29T11:44:34.479Z,24.63
2023-01-29T11:47:19.262Z,24.65
2023-01-29T11:49:49.944Z,22.83
2023-01-29T11:52:20.418Z,23.45
2023-01-29T11:54:51.966Z,23.58
2023-01-29T11:57:29.366Z,23.45
2023-01-29T12:00:01.266Z,26.23
2023-01-29T12:02:37.229Z,25.02
2023-01-29T12:05:15.687Z,21.55
2023-01-29T12:07:45.498Z,25.55
2023-01-29T12:10:32.636Z,24.00
2023-01-29T12:13:22.805Z,23.88
2023-01-29T12:15:52.663Z,24.42
2023-01-29T12:18:30.404Z,26.03
2023-01-29T12:21:03.563Z,21.88
2023-01-29T12:23:41.541Z,22.20
2023-01-29T12:26:15.972Z,24.55
2023-01-29T12:28:56.211Z,21.77
2023-01-29T12:31:38.082Z,22.83
2023-01-29T12:34:13.939Z,24.57
2023-01-29T12:36:53.153Z,22.98
2023-01-29T12:39:24.533Z,25.95
2023-01-29T12:41:59.029Z,25.02
2023-01-29T12:44:34.675Z,26.10
2023-01-29T12:47:07.661Z,25.50
2023-01-29T12:49:40.637Z,27.30
2023-01-29T12:52:13.528Z,25.13
2023-01-29T12:54:47.518Z,27.63
2023-01-29T12:57:24.239Z,26.25
2023-01-29T12:59:59.631Z,25.25
2023-01-29T13:02:36.615Z,26.33
2023-01-29T13:05:16.981Z,24.25
2023-01-29T13:07:50.212Z,24.95
2023-01-29T13:10:22.031Z,27.10
2023-01-29T13:12:58.599Z,29.25
2023-01-29T13:15:35.606Z,32.88
2023-01-29T13:18:34.942Z,28.05
2023-01-29T13:21:04.556Z,29.05
2023-01-29T13:23:38.311Z,30.35
2023-01-29T13:26:07.009Z,28.85
2023-01-29T13:28:35.188Z,24.98
2023-01-29T13:31:29.433Z,25.75
2023-01-29T13:34:06.897Z,28.83
2023-01-29T13:36:37.753Z,28.88
2023-01-29T13:39:08.725Z,26.88
2023-01-29T13:41:39.989Z,29.75
2023-01-29T13:44:19.692Z,29.40
2023-01-29T13:46:55.087Z,31.63
2023-01-29T13:49:30.636Z,30.90
2023-01-29T13:51:59.711Z,31.85
2023-01-29T13:54:29.131Z,30.25
2023-01-29T13:57:02.203Z,37.22
2023-01-29T13:59:53.926Z,33.28
2023-01-29T14:02:28.211Z,33.53
2023-01-29T14:05:29.555Z,35.03
2023-01-29T14:07:59.374Z,35.03
2023-01-29T14:10:29.127Z,33.03
2023-01-29T14:13:35.438Z,33.25
2023-01-29T14:16:34.798Z,33.85
2023-01-29T14:19:07.028Z,32.33
2023-01-29T14:21:37.803Z,33.42
2023-01-29T14:24:19.769Z,32.42
2023-01-29T14:26:49.747Z,31.40
2023-01-29T14:29:32.549Z,31.58
2023-01-29T14:32:15.984Z,29.27
2023-01-29T14:34:49.092Z,32.72
2023-01-29T14:37:23.697Z,34.15
2023-01-29T14:39:54.218Z,29.63
2023-01-29T14:42:25.943Z,30.63
2023-01-29T14:45:11.400Z,32.53
2023-01-29T14:48:00.747Z,32.10
2023-01-29T14:50:49.418Z,32.42
2023-01-29T14:53:26.605Z,30.13
2023-01-29T14:56:00.117Z,30.02
2023-01-29T14:58:38.531Z,29.73
2023-01-29T15:01:16.087Z,28.58
2023-01-29T15:03:48.920Z,35.78
2023-01-29T15:06:24.284Z,34.58
2023-01-29T15:08:58.903Z,32.25
2023-01-29T15:11:36.755Z,31.45
2023-01-29T15:14:28.124Z,30.92
2023-01-29T15:17:07.284Z,29.80
2023-01-29T15:19:37.716Z,30.45
2023-01-29T15:22:12.554Z,31.80
2023-01-29T15:24:42.228Z,34.95
2023-01-29T15:27:15.015Z,32.05
2023-01-29T15:29:45.900Z,33.35
2023-01-29T15:32:20.777Z,34.83
2023-01-29T15:34:50.411Z,36.10
2023-01-29T15:37:32.499Z,31.08
2023-01-29T15:40:02.040Z,29.75
2023-01-29T15:42:42.698Z,33.88
2023-01-29T15:45:24.241Z,33.00
2023-01-29T15:47:54.609Z,33.90
2023-01-29T15:50:23.403Z,36.33
2023-01-29T15:52:54.738Z,35.85
2023-01-29T15:55:24.877Z,35.50
2023-01-29T15:57:53.471Z,35.55
2023-01-29T16:00:27.259Z,35.72
2023-01-29T16:02:55.987Z,33.75
2023-01-29T16:05:29.338Z,32.88
2023-01-29T16:07:59.317Z,33.95
2023-01-29T16:10:30.242Z,35.33
2023-01-29T16:12:59.558Z,34.17
2023-01-29T16:15:32.969Z,35.38
2023-01-29T16:18:03.912Z,31.10
2023-01-29T16:20:38.908Z,37.22
2023-01-29T16:23:11.297Z,37.03
2023-01-29T16:25:40.362Z,31.30
2023-01-29T16:28:11.058Z,32.08
2023-01-29T16:30:40.442Z,35.47
2023-01-29T16:33:14.359Z,33.13
2023-01-29T16:35:43.169Z,32.33
2023-01-29T16:38:28.366Z,31.98
2023-01-29T16:41:09.512Z,32.22
2023-01-29T16:43:50.343Z,34.55
2023-01-29T16:46:26.162Z,35.17
2023-01-29T16:48:55.259Z,33.90
2023-01-29T16:51:27.024Z,30.30
2023-01-29T16:54:08.157Z,30.55
2023-01-29T16:56:38.593Z,34.10
2023-01-29T16:59:07.924Z,31.42
2023-01-29T17:01:37.394Z,29.75
2023-01-29T17:04:11.219Z,33.80
2023-01-29T17:06:49.355Z,30.35
2023-01-29T17:09:25.554Z,34.22
2023-01-29T17:11:57.535Z,30.38
2023-01-29T17:14:26.973Z,37.15
2023-01-29T17:16:57.658Z,30.60
2023-01-29T17:19:26.035Z,31.15
2023-01-29T17:21:54.747Z,30.60
2023-01-29T17:24:24.317Z,31.83
2023-01-29T17:26:52.767Z,30.52
2023-01-29T17:29:24.742Z,35.40
2023-01-29T17:31:52.898Z,31.17
2023-01-29T17:34:20.975Z,30.70
2023-01-29T17:36:49.390Z,32.15
2023-01-29T17:39:20.171Z,31.90
2023-01-29T17:41:52.012Z,28.77
2023-01-29T17:44:20.584Z,30.17
2023-01-29T17:46:49.351Z,28.80
2023-01-29T17:49:24.455Z,30.08
2023-01-29T17:51:52.813Z,30.08
2023-01-29T17:54:21.507Z,30.38
2023-01-29T17:56:51.712Z,29.83
2023-01-29T17:59:21.779Z,36.15
2023-01-29T18:01:50.834Z,33.08
2023-01-29T18:04:19.521Z,32.10
2023-01-29T18:06:49.541Z,30.98
2023-01-29T18:09:23.003Z,30.30
2023-01-29T18:11:53.417Z,30.13
2023-01-29T18:14:21.638Z,29.83
2023-01-29T18:16:49.678Z,30.27
2023-01-29T18:19:22.793Z,30.17
2023-01-29T18:21:52.496Z,29.20
2023-01-29T18:24:20.913Z,30.05
2023-01-29T18:26:49.096Z,32.42
2023-01-29T18:29:19.088Z,30.05
2023-01-29T18:31:49.929Z,28.85
2023-01-29T18:34:18.204Z,30.83
2023-01-29T18:36:47.756Z,30.95
2023-01-29T18:39:16.213Z,31.25
2023-01-29T18:41:44.589Z,31.90
2023-01-29T18:44:13.085Z,30.02
2023-01-29T18:46:42.787Z,26.92
2023-01-29T18:49:10.901Z,28.15
2023-01-29T18:51:39.168Z,26.70
2023-01-29T18:54:07.415Z,31.38
2023-01-29T18:56:35.560Z,30.65
2023-01-29T18:59:05.645Z,29.98
2023-01-29T19:01:34.844Z,28.08
2023-01-29T19:04:04.306Z,30.20
2023-01-29T19:06:36.130Z,25.85
2023-01-29T19:09:05.916Z,28.15
2023-01-29T19:11:34.059Z,30.83
2023-01-29T19:14:02.153Z,26.85
2023-01-29T19:16:30.634Z,25.75
2023-01-29T19:19:01.233Z,28.95
2023-01-29T19:21:35.843Z,28.40
2023-01-29T19:24:04.080Z,29.92
2023-01-29T19:26:34.143Z,28.83
2023-01-29T19:29:02.648Z,26.75
2023-01-29T19:31:32.894Z,35.15
2023-01-29T19:34:04.531Z,30.17
2023-01-29T19:36:34.263Z,31.85
2023-01-29T19:39:03.020Z,28.92
2023-01-29T19:41:31.114Z,27.33
2023-01-29T19:44:02.255Z,29.35
2023-01-29T19:46:33.525Z,27.65
2023-01-29T19:49:03.641Z,28.98
2023-01-29T19:51:31.798Z,30.63
2023-01-29T19:54:02.318Z,27.92
2023-01-29T19:56:30.477Z,34.80
2023-01-29T19:58:58.553Z,30.67
2023-01-29T20:01:29.536Z,29.05
2023-01-29T20:03:58.533Z,29.90
2023-01-29T20:06:28.164Z,32.92
2023-01-29T20:08:56.330Z,30.77
2023-01-29T20:11:26.039Z,30.85
2023-01-29T20:13:54.507Z,32.15
2023-01-29T20:16:22.858Z,30.90
2023-01-29T20:18:51.664Z,34.15
2023-01-29T20:21:22.558Z,33.17
2023-01-29T20:23:52.153Z,35.05
2023-01-29T20:26:21.840Z,29.95
2023-01-29T20:28:51.831Z,34.83
2023-01-29T20:31:19.957Z,32.45
2023-01-29T20:33:48.046Z,34.70
2023-01-29T20:36:16.085Z,34.03
2023-01-29T20:38:44.728Z,32.72
2023-01-29T20:41:16.207Z,35.03
2023-01-29T20:43:45.593Z,35.40
2023-01-29T20:46:15.381Z,32.22
2023-01-29T20:48:43.771Z,32.78
2023-01-29T20:51:15.950Z,33.88
2023-01-29T20:53:46.046Z,35.90
2023-01-29T20:56:15.780Z,33.65
2023-01-29T20:58:44.120Z,35.65
2023-01-29T21:01:15.543Z,32.47
2023-01-29T21:03:44.298Z,33.85
2023-01-29T21:06:13.241Z,39.17
2023-01-29T21:08:41.871Z,33.15
2023-01-29T21:11:11.208Z,35.47
2023-01-29T21:13:39.555Z,34.88
2023-01-29T21:16:10.786Z,34.88
2023-01-29T21:18:40.773Z,35.30
2023-01-29T21:21:08.887Z,35.08
2023-01-29T21:23:36.917Z,33.90
2023-01-29T21:26:06.848Z,36.97
2023-01-29T21:28:35.169Z,36.03
2023-01-29T21:31:06.605Z,38.05
2023-01-29T21:33:35.319Z,33.30
2023-01-29T21:36:05.822Z,37.67
2023-01-29T21:38:34.231Z,39.35
2023-01-29T21:41:03.347Z,36.30
2023-01-29T21:43:31.201Z,39.17
2023-01-29T21:46:01.127Z,37.00
2023-01-29T21:48:29.315Z,38.20
2023-01-29T21:50:57.589Z,37.80
2023-01-29T21:53:27.136Z,39.05
2023-01-29T21:56:00.671Z,39.47
2023-01-29T21:58:28.863Z,36.20
2023-01-29T22:00:57.038Z,37.05
2023-01-29T22:03:47.168Z,34.92
2023-01-29T22:06:15.799Z,38.92
2023-01-29T22:08:45.252Z,36.67
2023-01-29T22:11:13.401Z,36.20
2023-01-29T22:13:41.592Z,39.85
2023-01-29T22:16:10.195Z,43.22
2023-01-29T22:18:38.241Z,40.55
2023-01-29T22:21:06.812Z,45.75
2023-01-29T22:23:34.909Z,41.97
2023-01-29T22:26:09.057Z,41.25
2023-01-29T22:28:37.300Z,40.00
2023-01-29T22:31:06.747Z,38.13
2023-01-29T22:33:35.221Z,40.00
2023-01-29T22:36:03.810Z,38.70
2023-01-29T22:38:32.275Z,38.20
2023-01-29T22:41:01.487Z,40.30
2023-01-29T22:43:30.989Z,39.65
2023-01-29T22:45:59.223Z,44.83
2023-01-29T22:48:28.591Z,42.63
2023-01-29T22:51:10.106Z,38.45
2023-01-29T22:53:38.941Z,46.58
2023-01-29T22:56:10.098Z,39.33
2023-01-29T22:58:41.139Z,37.55
2023-01-29T23:01:09.829Z,40.03
2023-01-29T23:03:38.237Z,38.13
2023-01-29T23:06:06.493Z,41.25
2023-01-29T23:08:34.868Z,38.88
2023-01-29T23:11:14.304Z,41.03
2023-01-29T23:13:46.655Z,41.97
2023-01-29T23:16:16.332Z,44.40
2023-01-29T23:18:45.808Z,41.95
2023-01-29T23:21:14.025Z,42.25
2023-01-29T23:23:44.705Z,43.80
2023-01-29T23:26:31.826Z,45.58
2023-01-29T23:29:01.617Z,45.05
2023-01-29T23:31:29.884Z,45.97
2023-01-29T23:34:00.321Z,43.58
2023-01-29T23:36:30.601Z,43.63
2023-01-29T23:38:58.682Z,47.65
2023-01-29T23:41:26.770Z,41.42
2023-01-29T23:43:54.925Z,48.25
2023-01-29T23:46:24.699Z,44.42
2023-01-29T23:48:52.841Z,45.90
2023-01-29T23:51:20.967Z,45.13
2023-01-29T23:53:49.113Z,45.65
2023-01-29T23:56:17.143Z,45.08
2023-01-29T23:58:45.227Z,44.47
